Maersk Barry — OYJE2 — position and weather

sailwx.info

Track history (hours):
 
Tides and Currents Weather Stations Pressure Air Temp Water Temp Dewpoint Dewpoint Depression Visibility Wind Speed Wind Dir Waves Ship Positions

Maersk Barry

Last reported at 2014-Sep-17 16:21 UTC. Time now 2014-Oct-01 16:31 UTC.
Position N 38°56' W 071°59'.
Warning: this ship's position is 14 days out of date.

Length 175 m; draft 9.1 m.

Type: Tanker. MMSI: 219127000.

Date/timePositionNaut miles runAvg speedWind from/ knotsBaromVisibWave heightAir tempDewpointWater temp
2014-Sep-17 16:21N 38°56' W 071°59'14 7.2
2014-Sep-17 14:28N 39°06' W 072°12'15 7.4
2014-Sep-17 12:27N 39°16' W 072°25'23 7.7
2014-Sep-17 09:29N 39°33' W 072°46'8 8.0
2014-Sep-17 08:31N 39°38' W 072°53'8 7.8
2014-Sep-17 07:31N 39°44' W 073°00'8 7.8
2014-Sep-17 06:28N 39°49' W 073°08'15 7.6
2014-Sep-17 04:27N 40°01' W 073°22'15 7.5
2014-Sep-17 02:28N 40°12' W 073°34'7 7.7
2014-Sep-17 01:32N 40°17' W 073°40'10 7.5
2014-Sep-17 00:10N 40°26' W 073°47'6 9.7
2014-Sep-16 23:33N 40°29' W 073°54'1210.6
2014-Sep-16 22:25N 40°38' W 074°04'0 0.0
2014-Sep-16 11:30N 40°38' W 074°04'0 0.0
2014-Sep-16 10:30N 40°38' W 074°04'0 0.0
2014-Sep-16 09:30N 40°38' W 074°04'0 0.1
2014-Sep-16 07:24N 40°38' W 074°04'0 0.0
2014-Sep-16 06:12N 40°38' W 074°04'0 0.0
2014-Sep-16 05:30N 40°38' W 074°04'0 0.0
2014-Sep-16 04:24N 40°38' W 074°04'0 0.1
2014-Sep-16 03:33N 40°38' W 074°04'0 0.0
2014-Sep-16 02:33N 40°38' W 074°04'0 0.1
2014-Sep-16 01:33N 40°38' W 074°04'11 8.5
2014-Sep-16 00:15N 40°48' W 073°58'  
2014-Sep-12 22:21N 41°17' W 073°57'35 8.3
2014-Sep-12 18:06N 40°42' W 074°02'4 6.1
2014-Sep-12 17:26N 40°38' W 074°04'0 0.0
2014-Sep-12 13:26N 40°38' W 074°04'0 0.1
2014-Sep-12 12:32N 40°38' W 074°04'0 0.2
2014-Sep-12 11:29N 40°38' W 074°04'0 0.0
2014-Sep-12 10:14N 40°38' W 074°04'2 2.8
2014-Sep-12 09:22N 40°36' W 074°02'7 8.4
2014-Sep-12 08:30N 40°30' W 073°56'9 9.1
2014-Sep-12 07:33N 40°26' W 073°46'9 9.1
2014-Sep-12 06:33N 40°21' W 073°37'11 9.6
2014-Sep-12 05:27N 40°15' W 073°25'910.0
2014-Sep-12 04:32N 40°10' W 073°15'1110.5
2014-Sep-12 03:32N 40°07' W 073°02'1211.1
2014-Sep-12 02:27N 40°06' W 072°46'1011.0
2014-Sep-12 01:33N 40°06' W 072°33'1110.9
2014-Sep-12 00:33N 40°06' W 072°19'1110.8
2014-Sep-11 23:31N 40°05' W 072°05'1010.7
2014-Sep-11 22:33N 40°05' W 071°51'1110.9
2014-Sep-11 21:33N 40°05' W 071°37'1110.7
2014-Sep-11 20:33N 40°04' W 071°23'9 9.2
2014-Sep-11 19:33N 40°04' W 071°11'1110.4
2014-Sep-11 18:32N 40°03' W 070°57'1010.6
2014-Sep-11 17:33N 40°03' W 070°43'1010.5
2014-Sep-11 16:33N 40°03' W 070°30'1110.8
2014-Sep-11 15:32N 40°03' W 070°15'1111.2
2014-Sep-11 14:32N 40°02' W 070°01'1111.0
2014-Sep-11 13:33N 40°02' W 069°47'1111.1
2014-Sep-11 12:32N 40°01' W 069°32'1111.1
2014-Sep-11 11:33N 40°01' W 069°18'1010.0
2014-Sep-11 10:33N 40°01' W 069°05'10 9.7
2014-Sep-11 09:32N 40°00' W 068°52'11 9.3
2014-Sep-11 08:24N 40°00' W 068°38'9 9.0
2014-Sep-11 07:26N 39°60' W 068°27'9 9.0
2014-Sep-11 06:23N 39°60' W 068°14'  
Track history (hours):
 
Tides and Currents Weather Stations Pressure Air Temp Water Temp Dewpoint Dewpoint Depression Visibility Wind Speed Wind Dir Waves Ship Positions

Maersk Barry

Last reported at 2014-Sep-17 16:21 UTC. Time now 2014-Oct-01 16:31 UTC.
Position N 38°56' W 071°59'.
Warning: this ship's position is 14 days out of date.

Length 175 m; draft 9.1 m.

Type: Tanker. MMSI: 219127000.

Date/timePositionNaut miles runAvg speedWind from/ knotsBaromVisibWave heightAir tempDewpointWater temp
2014-Sep-17 16:21N 38°56' W 071°59'14 7.2
2014-Sep-17 14:28N 39°06' W 072°12'15 7.4
2014-Sep-17 12:27N 39°16' W 072°25'23 7.7
2014-Sep-17 09:29N 39°33' W 072°46'8 8.0
2014-Sep-17 08:31N 39°38' W 072°53'8 7.8
2014-Sep-17 07:31N 39°44' W 073°00'8 7.8
2014-Sep-17 06:28N 39°49' W 073°08'15 7.6
2014-Sep-17 04:27N 40°01' W 073°22'15 7.5
2014-Sep-17 02:28N 40°12' W 073°34'7 7.7
2014-Sep-17 01:32N 40°17' W 073°40'10 7.5
2014-Sep-17 00:10N 40°26' W 073°47'6 9.7
2014-Sep-16 23:33N 40°29' W 073°54'1210.6
2014-Sep-16 22:25N 40°38' W 074°04'0 0.0
2014-Sep-16 11:30N 40°38' W 074°04'0 0.0
2014-Sep-16 10:30N 40°38' W 074°04'0 0.0
2014-Sep-16 09:30N 40°38' W 074°04'0 0.1
2014-Sep-16 07:24N 40°38' W 074°04'0 0.0
2014-Sep-16 06:12N 40°38' W 074°04'0 0.0
2014-Sep-16 05:30N 40°38' W 074°04'0 0.0
2014-Sep-16 04:24N 40°38' W 074°04'0 0.1
2014-Sep-16 03:33N 40°38' W 074°04'0 0.0
2014-Sep-16 02:33N 40°38' W 074°04'0 0.1
2014-Sep-16 01:33N 40°38' W 074°04'11 8.5
2014-Sep-16 00:15N 40°48' W 073°58'  
2014-Sep-12 22:21N 41°17' W 073°57'35 8.3
2014-Sep-12 18:06N 40°42' W 074°02'4 6.1
2014-Sep-12 17:26N 40°38' W 074°04'0 0.0
2014-Sep-12 13:26N 40°38' W 074°04'0 0.1
2014-Sep-12 12:32N 40°38' W 074°04'0 0.2
2014-Sep-12 11:29N 40°38' W 074°04'0 0.0
2014-Sep-12 10:14N 40°38' W 074°04'2 2.8
2014-Sep-12 09:22N 40°36' W 074°02'7 8.4
2014-Sep-12 08:30N 40°30' W 073°56'9 9.1
2014-Sep-12 07:33N 40°26' W 073°46'9 9.1
2014-Sep-12 06:33N 40°21' W 073°37'11 9.6
2014-Sep-12 05:27N 40°15' W 073°25'910.0
2014-Sep-12 04:32N 40°10' W 073°15'1110.5
2014-Sep-12 03:32N 40°07' W 073°02'1211.1
2014-Sep-12 02:27N 40°06' W 072°46'1011.0
2014-Sep-12 01:33N 40°06' W 072°33'1110.9
2014-Sep-12 00:33N 40°06' W 072°19'1110.8
2014-Sep-11 23:31N 40°05' W 072°05'1010.7
2014-Sep-11 22:33N 40°05' W 071°51'1110.9
2014-Sep-11 21:33N 40°05' W 071°37'1110.7
2014-Sep-11 20:33N 40°04' W 071°23'9 9.2
2014-Sep-11 19:33N 40°04' W 071°11'1110.4
2014-Sep-11 18:32N 40°03' W 070°57'1010.6
2014-Sep-11 17:33N 40°03' W 070°43'1010.5
2014-Sep-11 16:33N 40°03' W 070°30'1110.8
2014-Sep-11 15:32N 40°03' W 070°15'1111.2
2014-Sep-11 14:32N 40°02' W 070°01'1111.0
2014-Sep-11 13:33N 40°02' W 069°47'1111.1
2014-Sep-11 12:32N 40°01' W 069°32'1111.1
2014-Sep-11 11:33N 40°01' W 069°18'1010.0
2014-Sep-11 10:33N 40°01' W 069°05'10 9.7
2014-Sep-11 09:32N 40°00' W 068°52'11 9.3
2014-Sep-11 08:24N 40°00' W 068°38'9 9.0
2014-Sep-11 07:26N 39°60' W 068°27'9 9.0
2014-Sep-11 06:23N 39°60' W 068°14'  

Dump ship's entire track history